Flight Track Log - Related Links

Times and Time Zones

All times are in EST time to prevent confusion due to time zone crossing. See the N974BC flight status page for this flight to view local times or setup timezone preferences in your user account.

Time Position Orientation Groundspeed Altitude Reporting Facility
EST Latitude Longitude Course Direction KTS MPH feet Rate Location/Type
Sat 10:23:56 PM 27.9833 -81.9833 90° East 78 90 1,400  Level Tampa TRACON
Sat 10:24:44 PM 27.9833 -81.9667 90° East 78 90 1,900 667 Climbing Tampa TRACON
Sat 10:25:44 PM 27.9667 -81.9500 139° Southeast 85 98 2,600 650 Climbing Tampa TRACON
Sat 10:26:44 PM 27.9333 -81.9500 180° South 81 93 3,200 618 Climbing Tampa TRACON
Sat 10:29:08 PM 27.8892 -81.9450 174° South 60 69 4,700 594 Climbing Miami Center
Sat 10:30:06 PM 27.8664 -81.9392 167° South 83 96 5,200 555 Climbing Miami Center
Sat 10:31:07 PM 27.8417 -81.9333 168° South 83 96 5,800 550 Climbing Miami Center
Sat 10:32:06 PM 27.8189 -81.9253 163° South 83 96 6,300 545 Climbing Miami Center
Sat 10:33:08 PM 27.7944 -81.9078 148° Southeast 89 102 6,900 350 Climbing Miami Center
Sat 10:34:06 PM 27.7697 -81.8997 164° South 94 108 7,000  Climbing Miami Center
Sat 10:35:07 PM 27.7431 -81.8892 161° South 94 108 6,900  Descending Miami Center
Sat 10:36:08 PM 27.7142 -81.8786 162° South 99 114 7,000  Climbing Miami Center
Sat 10:37:05 PM 27.6875 -81.8656 157° South 105 121 6,900 -51 Descending Miami Center
Sat 10:38:06 PM 27.6650 -81.8575 162° South 105 121 6,900  Level Miami Center
Sat 10:39:07 PM 27.6358 -81.8492 166° South 110 127 6,900 50 Level Miami Center
Sat 10:40:05 PM 27.6075 -81.8292 148° Southeast 105 121 7,000 50 Climbing Miami Center
Sat 10:41:07 PM 27.5808 -81.8164 157° South 105 121 7,000 -50 Level Miami Center
Sat 10:42:06 PM 27.5542 -81.8036 157° South 110 127 6,900 -50 Descending Miami Center
Sat 10:43:07 PM 27.5314 -81.7908 154° Southeast 110 127 6,900 50 Level Miami Center
Sat 10:44:06 PM 27.5050 -81.7758 153° Southeast 110 127 7,000 50 Climbing Miami Center
Sat 10:45:06 PM 27.4803 -81.7606 151° Southeast 110 127 7,000 -50 Level Miami Center
Sat 10:46:07 PM 27.4536 -81.7478 157° South 110 127 6,900 -50 Descending Miami Center
Sat 10:47:07 PM 27.4250 -81.7325 155° Southeast 110 127 6,900 50 Level Miami Center
Sat 10:48:08 PM 27.3983 -81.7197 157° South 110 127 7,000 50 Climbing Miami Center
Sat 10:49:06 PM 27.3736 -81.7047 152° Southeast 110 127 7,000  Level Miami Center
Sat 10:50:06 PM 27.3450 -81.6894 155° Southeast 110 127 7,000  Level Miami Center
Sat 10:51:07 PM 27.3183 -81.6742 153° Southeast 110 127 7,000  Level Miami Center
Sat 10:52:07 PM 27.2917 -81.6592 153° Southeast 110 127 7,000 -50 Level Miami Center
Sat 10:53:08 PM 27.2631 -81.6439 155° Southeast 110 127 6,900  Descending Miami Center
Sat 10:54:05 PM 27.2364 -81.6311 157° South 110 127 7,000 50 Climbing Miami Center
Sat 10:55:07 PM 27.2097 -81.6161 153° Southeast 110 127 7,000 -50 Level Miami Center
Sat 10:56:05 PM 27.1831 -81.5986 150° Southeast 110 127 6,900  Descending Miami Center
Sat 10:57:07 PM 27.1564 -81.5836 153° Southeast 110 127 7,000 50 Climbing Miami Center
Sat 10:58:06 PM 27.1319 -81.5661 147° Southeast 110 127 7,000  Level Miami Center
Sat 10:59:06 PM 27.1053 -81.5533 157° South 110 127 7,000  Level Miami Center
Sat 11:00:06 PM 27.0767 -81.5361 152° Southeast 110 127 7,000  Level Miami Center
Sat 11:01:07 PM 27.0500 -81.5208 153° Southeast 110 127 7,000 -50 Level Miami Center
Sat 11:02:05 PM 27.0233 -81.5058 153° Southeast 110 127 6,900  Descending Miami Center
Sat 11:03:07 PM 26.9947 -81.4883 151° Southeast 110 127 7,000 49 Climbing Miami Center
Sat 11:04:08 PM 26.9658 -81.4733 155° Southeast 110 127 7,000  Level Miami Center
Sat 11:20:42 PM 26.5156 -81.2536 157° South 104 120 7,000  Level Miami Center
Sat 11:21:00 PM 26.5406 -81.2549 157° South  Level FlightAware Approximate
Sat 11:21:44 PM 26.4886 -81.2411 157° South 104 120 7,000  Level Miami Center
Sat 11:22:00 PM 26.5150 -81.2430 157° South  Level FlightAware Approximate
Sat 11:22:44 PM 26.4642 -81.2239 148° Southeast 104 120 7,000  Level Miami Center
Sat 11:23:00 PM 26.4893 -81.2312 157° South  Level FlightAware Approximate
Sat 11:23:44 PM 26.4414 -81.2139 159° South 109 125 7,000  Level Miami Center
Sat 11:24:00 PM 26.4637 -81.2193 157° South  Level FlightAware Approximate
Sat 11:24:41 PM 26.4147 -81.2036 161° South 109 125 6,900  Level Miami Center
Sat 11:25:00 PM 26.4381 -81.2074 157° South  Level FlightAware Approximate
Sat 11:25:43 PM 26.3878 -81.1911 157° South 109 125 6,900  Level Miami Center
Sat 11:26:44 PM 26.3653 -81.1786 154° Southeast 104 120 7,000 99 Climbing Miami Center
Sat 11:27:44 PM 26.3431 -81.1569 139° Southeast 104 120 7,100 -50 Climbing Miami Center
Sat 11:28:44 PM 26.3206 -81.1353 139° Southeast 99 114 6,900 -101 Descending Miami Center
Sat 11:29:43 PM 26.3003 -81.1136 136° Southeast 104 120 6,900 50 Level Miami Center
Sat 11:30:43 PM 26.2761 -81.0897 138° Southeast 104 120 7,000 50 Climbing Miami Center
Sat 11:31:43 PM 26.2558 -81.0703 139° Southeast 109 125 7,000  Level Miami Center
Sat 11:32:44 PM 26.2378 -81.0442 128° Southeast 104 120 7,000  Level Miami Center
Sat 11:33:43 PM 26.2175 -81.0228 137° Southeast 110 127 7,000 -63 Level Miami Center
Sat 11:34:20 PM 26.1989 -81.0106 149° Southeast 105 121 6,900  Descending Miami Center
Sat 11:34:42 PM 26.1972 -80.9989 99° East 110 127 7,000 73 Climbing Miami Center
Sat 11:35:42 PM 26.1769 -80.9797 140° Southeast 105 121 7,000 -95 Level Miami Center
Sat 11:35:45 PM 26.1686 -80.9794 178° South 102 117 6,900  Descending Miami Center
Sat 11:36:43 PM 26.1567 -80.9581 122° Southeast 105 121 7,000  Climbing Miami Center
Sat 11:36:52 PM 26.1483 -80.9533 153° Southeast 101 116 6,900  Descending Miami Center
Sat 11:37:50 PM 26.1303 -80.9317 133° Southeast 101 116 7,000 -55 Climbing Miami Center
Sat 11:38:42 PM 26.1161 -80.9150 133° Southeast 105 121 6,800 -500 Descending Miami Center
Sat 11:38:50 PM 26.1078 -80.9147 178° South 94 108 6,500 -500 Descending Miami Center
Sat 11:39:42 PM 26.0978 -80.8936 118° Southeast 105 121 6,300 -414 Descending Miami Center
Sat 11:39:48 PM 26.0894 -80.8956 192° South 96 110 6,100 -400 Descending Miami Center
Sat 11:40:42 PM 26.0775 -80.8744 122° Southeast 105 121 5,900 -492 Descending Miami Center
Sat 11:40:49 PM 26.0692 -80.8742 178° South 93 107 5,600 -590 Descending Miami Center
Sat 11:41:43 PM 26.0592 -80.8553 121° Southeast 105 121 5,300 -583 Descending Miami Center
Sat 11:42:01 PM 26.0489 -80.8503 156° South 96 110 4,900 -610 Descending Miami Center
Sat 11:42:42 PM 26.0389 -80.8339 124° Southeast 105 121 4,700 -511 Descending Miami Center
Sat 11:42:48 PM 26.0347 -80.8336 177° South 98 113 4,500 -800 Descending Miami Center
Sat 11:43:42 PM 26.0122 -80.8192 150° Southeast 92 106 3,900 -605 Descending Miami Center
Sat 11:44:57 PM 25.9789 -80.8111 168° South 97 112 3,200 -493 Descending Miami Center
Sat 11:45:56 PM 25.9542 -80.8033 164° South 94 108 2,800 -141 Descending Miami Center
Sat 11:47:05 PM 25.9250 -80.7956 167° South 106 122 2,900  Climbing Miami Center
Sat 11:48:11 PM 25.8919 -80.7850 164° South 102 117 2,800  Descending Miami Center
Sat 11:49:06 PM 25.8669 -80.7797 169° South 104 120 2,900 54 Climbing Miami Center
Sat 11:50:03 PM 25.8381 -80.7694 162° South 106 122 2,900  Level Miami Center
Sat 11:51:07 PM 25.8089 -80.7617 167° South 104 120 2,900 -48 Level Miami Center
Sat 11:52:08 PM 25.7819 -80.7561 169° South 105 121 2,800  Descending Miami Center
Sat 11:53:05 PM 25.7531 -80.7483 166° South 102 117 2,900 50 Climbing Miami Center
Sat 11:54:07 PM 25.7217 -80.7428 171° South 106 122 2,900  Level Miami Center
Sat 11:54:50 PM 25.7031 -80.7353 160° South 107 123 2,900 -347 Level Miami Center
Sat 11:56:08 PM 25.6658 -80.7247 166° South 103 119 2,200 -472 Descending Miami Center
Sat 11:56:57 PM 25.6475 -80.7081 141° Southeast 101 116 1,900 -164 Descending Miami Center
Sat 11:57:58 PM 25.6356 -80.6847 120° Southeast 102 117 1,900 -44 Level Miami Center
Sat 11:59:12 PM 25.6303 -80.6453 98° East 109 125 1,800  Descending Miami Center
Sun 12:00:01 AM 25.6308 -80.6200 89° East 101 116 1,900 48 Climbing Miami Center
Sun 12:01:17 AM 25.6342 -80.5764 85° East 108 124 1,900 -217 Level Miami Center
Sun 12:02:19 AM 25.6350 -80.5417 88° East 104 120 1,400 -360 Descending Miami Center
Sun 12:02:57 AM 25.6356 -80.5233 88° East 118 136 1,300 -367 Descending Miami Center
Sun 12:03:57 AM 25.6383 -80.4958 84° East 94 108 800 -454 Descending Miami Center
Sun 12:04:56 AM 25.6389 -80.4658 89° East 90 104 400 -407 Descending Miami Center
Sun 12:06:00 AM 25.6352 -80.4329 97° East  Level FlightAware Approximate
Sun 12:13:00 AM 25.6333 -80.4167 113° Southeast  Level FlightAware Approximate

Login

Don't have an account? Register now (free) for customized features, flight alerts, and more!